createdAt,value
2022-08-14T00:00:37.018Z,21.02
2022-08-14T00:01:38.054Z,21.01
2022-08-14T00:02:37.015Z,20.98
2022-08-14T00:03:36.989Z,20.96
2022-08-14T00:04:41.875Z,20.89
2022-08-14T00:05:37.978Z,20.90
2022-08-14T00:06:37.953Z,20.87
2022-08-14T00:07:41.836Z,20.83
2022-08-14T00:08:44.819Z,20.80
2022-08-14T00:09:39.624Z,20.86
2022-08-14T00:10:52.829Z,20.81
2022-08-14T00:11:37.912Z,20.77
2022-08-14T00:12:39.117Z,20.79
2022-08-14T00:13:37.888Z,20.79
2022-08-14T00:14:36.877Z,20.81
2022-08-14T00:15:37.325Z,20.81
2022-08-14T00:16:41.306Z,20.68
2022-08-14T00:17:47.143Z,20.68
2022-08-14T00:19:06.680Z,20.66
2022-08-14T00:19:37.835Z,20.69
2022-08-14T00:20:41.267Z,20.65
2022-08-14T00:21:37.811Z,20.69
2022-08-14T00:22:57.036Z,20.65
2022-08-14T00:23:37.789Z,20.69
2022-08-14T00:24:36.857Z,20.72
2022-08-14T00:25:42.046Z,20.72
2022-08-14T00:26:37.760Z,20.64
2022-08-14T00:27:37.767Z,20.66
2022-08-14T00:28:37.183Z,20.61
2022-08-14T00:29:40.335Z,20.58
2022-08-14T00:30:36.741Z,20.65
2022-08-14T00:31:45.852Z,20.62
2022-08-14T00:32:52.208Z,20.51
2022-08-14T00:33:52.067Z,20.58
2022-08-14T00:34:46.762Z,20.59
2022-08-14T00:36:34.037Z,20.50
2022-08-14T00:36:49.446Z,20.49
2022-08-14T00:37:38.650Z,20.59
2022-08-14T00:38:36.641Z,20.58
2022-08-14T00:39:36.665Z,20.64
2022-08-14T00:40:36.637Z,20.56
2022-08-14T00:41:36.614Z,20.54
2022-08-14T00:42:55.966Z,20.54
2022-08-14T00:43:37.589Z,20.53
2022-08-14T00:44:36.585Z,20.51
2022-08-14T00:45:36.573Z,20.53
2022-08-14T00:46:36.571Z,20.53
2022-08-14T00:47:42.950Z,20.56
2022-08-14T00:48:36.915Z,20.54
2022-08-14T00:49:38.102Z,20.68
2022-08-14T00:50:37.523Z,20.51
2022-08-14T00:51:38.190Z,20.54
2022-08-14T00:52:36.556Z,20.50
2022-08-14T00:53:36.495Z,20.39
2022-08-14T00:54:36.485Z,20.51
2022-08-14T00:55:36.469Z,20.39
2022-08-14T00:56:36.492Z,20.25
2022-08-14T00:57:36.455Z,20.00
2022-08-14T00:58:36.450Z,19.84
2022-08-14T00:59:37.496Z,19.76
2022-08-14T01:00:37.509Z,19.75
2022-08-14T01:01:37.468Z,19.83
2022-08-14T01:02:36.408Z,19.75
2022-08-14T01:03:36.409Z,19.79
2022-08-14T01:04:50.921Z,19.84
2022-08-14T01:05:51.201Z,19.83
2022-08-14T01:06:37.385Z,19.80
2022-08-14T01:07:38.972Z,19.90
2022-08-14T01:08:51.626Z,19.98
2022-08-14T01:09:37.336Z,19.97
2022-08-14T01:10:38.232Z,19.91
2022-08-14T01:11:36.405Z,19.94
2022-08-14T01:12:40.679Z,20.00
2022-08-14T01:13:42.610Z,19.94
2022-08-14T01:14:37.297Z,19.95
2022-08-14T01:15:57.701Z,19.90
2022-08-14T01:16:37.307Z,19.90
2022-08-14T01:17:36.259Z,19.94
2022-08-14T01:18:37.248Z,19.90
2022-08-14T01:19:36.242Z,19.90
2022-08-14T01:20:40.037Z,19.87
2022-08-14T01:21:38.697Z,19.91
2022-08-14T01:22:37.238Z,19.88
2022-08-14T01:23:46.535Z,19.84
2022-08-14T01:24:37.182Z,19.78
2022-08-14T01:25:36.177Z,19.88
2022-08-14T01:26:39.180Z,19.88
2022-08-14T01:27:36.661Z,19.94
2022-08-14T01:28:56.157Z,19.91
2022-08-14T01:29:59.019Z,19.84
2022-08-14T01:30:39.940Z,19.93
2022-08-14T01:31:37.344Z,19.97
2022-08-14T01:32:42.367Z,19.93
2022-08-14T01:33:59.859Z,19.84
2022-08-14T01:35:20.920Z,19.90
2022-08-14T01:36:05.405Z,19.80
2022-08-14T01:36:37.097Z,19.84
2022-08-14T01:37:36.127Z,19.78
2022-08-14T01:38:37.233Z,19.76
2022-08-14T01:39:37.719Z,19.66
2022-08-14T01:40:41.030Z,19.68
2022-08-14T01:41:37.042Z,19.63
2022-08-14T01:42:36.479Z,19.47
2022-08-14T01:43:36.110Z,19.61
2022-08-14T01:44:35.988Z,19.60
2022-08-14T01:45:40.588Z,19.51
2022-08-14T01:46:37.191Z,19.50
2022-08-14T01:47:37.248Z,19.51
2022-08-14T01:48:37.204Z,19.58
2022-08-14T01:49:45.743Z,19.50
2022-08-14T01:50:36.936Z,19.50
2022-08-14T01:51:36.448Z,19.42
2022-08-14T01:52:58.358Z,19.40
2022-08-14T01:53:36.905Z,19.31
2022-08-14T01:54:37.888Z,19.23
2022-08-14T01:55:35.888Z,19.28
2022-08-14T01:56:36.966Z,19.17
2022-08-14T01:57:59.296Z,19.15
2022-08-14T01:58:36.853Z,19.24
2022-08-14T01:59:38.020Z,19.17
2022-08-14T02:00:36.260Z,19.05
2022-08-14T02:01:35.914Z,19.08
2022-08-14T02:02:36.739Z,19.02
2022-08-14T02:03:35.808Z,18.97
2022-08-14T02:04:56.236Z,18.86
2022-08-14T02:05:38.388Z,18.79
2022-08-14T02:06:35.789Z,18.74
2022-08-14T02:07:53.704Z,18.65
2022-08-14T02:08:36.757Z,18.54
2022-08-14T02:09:36.746Z,18.52
2022-08-14T02:10:36.569Z,18.52
2022-08-14T02:11:36.732Z,18.46
2022-08-14T02:12:35.727Z,18.57
2022-08-14T02:13:35.712Z,18.61
2022-08-14T02:14:35.698Z,18.74
2022-08-14T02:15:35.681Z,18.80
2022-08-14T02:16:35.693Z,18.62
2022-08-14T02:17:35.663Z,18.72
2022-08-14T02:18:35.654Z,18.68
2022-08-14T02:19:35.653Z,18.80
2022-08-14T02:20:35.891Z,18.68
2022-08-14T02:21:43.191Z,18.67
2022-08-14T02:22:47.305Z,18.59
2022-08-14T02:23:36.603Z,18.67
2022-08-14T02:24:39.014Z,18.68
2022-08-14T02:25:36.606Z,18.64
2022-08-14T02:28:19.066Z,18.58
2022-08-14T02:28:25.938Z,18.59
2022-08-14T02:28:57.391Z,18.47
2022-08-14T02:29:56.097Z,18.58
2022-08-14T02:30:38.187Z,18.54
2022-08-14T02:31:41.882Z,18.58
2022-08-14T02:32:37.525Z,18.50
2022-08-14T02:33:39.353Z,18.46
2022-08-14T02:34:36.314Z,18.52
2022-08-14T02:35:40.940Z,18.54
2022-08-14T02:37:04.410Z,18.47
2022-08-14T02:37:46.444Z,18.50
2022-08-14T02:38:36.455Z,18.40
2022-08-14T02:39:36.978Z,18.46
2022-08-14T02:40:35.440Z,18.42
2022-08-14T02:41:39.885Z,18.50
2022-08-14T02:42:37.711Z,18.44
2022-08-14T02:43:37.095Z,18.47
2022-08-14T02:44:39.770Z,18.52
2022-08-14T02:45:38.247Z,18.44
2022-08-14T02:46:36.419Z,18.47
2022-08-14T02:47:35.364Z,18.47
2022-08-14T02:49:04.769Z,18.44
2022-08-14T02:49:36.347Z,18.43
2022-08-14T02:50:35.331Z,18.44
2022-08-14T02:51:36.650Z,18.44
2022-08-14T02:52:57.810Z,18.46
2022-08-14T02:53:37.479Z,18.46
2022-08-14T02:54:35.292Z,18.42
2022-08-14T02:55:35.287Z,18.42
2022-08-14T02:57:15.203Z,18.54
2022-08-14T02:57:40.141Z,18.47
2022-08-14T02:58:35.258Z,18.47
2022-08-14T02:59:35.252Z,18.46
2022-08-14T03:00:35.466Z,18.44
2022-08-14T03:01:43.427Z,18.44
2022-08-14T03:02:56.572Z,18.44
2022-08-14T03:03:38.896Z,18.47
2022-08-14T03:04:35.193Z,18.46
2022-08-14T03:05:37.154Z,18.40
2022-08-14T03:06:58.189Z,18.44
2022-08-14T03:07:36.171Z,18.44
2022-08-14T03:08:35.157Z,18.52
2022-08-14T03:10:24.725Z,18.44
2022-08-14T03:10:36.132Z,18.44
2022-08-14T03:11:35.425Z,18.40
2022-08-14T03:12:35.121Z,18.54
2022-08-14T03:13:35.116Z,18.43
2022-08-14T03:14:35.098Z,18.42
2022-08-14T03:15:35.095Z,18.37
2022-08-14T03:16:35.095Z,18.43
2022-08-14T03:17:41.079Z,18.43
2022-08-14T03:18:36.059Z,18.47
2022-08-14T03:19:35.057Z,18.43
2022-08-14T03:20:35.043Z,18.44
2022-08-14T03:21:35.050Z,18.44
2022-08-14T03:22:35.013Z,18.40
2022-08-14T03:23:36.335Z,18.47
2022-08-14T03:24:35.004Z,18.37
2022-08-14T03:25:37.757Z,18.52
2022-08-14T03:26:34.981Z,18.42
2022-08-14T03:27:35.276Z,18.43
2022-08-14T03:28:36.804Z,18.46
2022-08-14T03:29:35.967Z,18.46
2022-08-14T03:30:38.929Z,18.43
2022-08-14T03:31:35.929Z,18.39
2022-08-14T03:32:34.942Z,18.39
2022-08-14T03:33:37.974Z,18.47
2022-08-14T03:34:52.697Z,18.36
2022-08-14T03:35:39.802Z,18.49
2022-08-14T03:37:50.764Z,18.43
2022-08-14T03:39:08.782Z,18.43
2022-08-14T03:39:15.184Z,18.44
2022-08-14T03:39:35.883Z,18.43
2022-08-14T03:40:34.848Z,18.42
2022-08-14T03:41:34.826Z,18.40
2022-08-14T03:42:36.892Z,18.42
2022-08-14T03:43:34.818Z,18.42
2022-08-14T03:45:20.233Z,18.33
2022-08-14T03:45:35.828Z,18.27
2022-08-14T03:46:38.783Z,18.27
2022-08-14T03:47:55.965Z,18.31
2022-08-14T03:48:40.155Z,18.34
2022-08-14T03:49:34.751Z,18.42
2022-08-14T03:50:34.742Z,18.33
2022-08-14T03:51:34.737Z,18.39
2022-08-14T03:52:39.220Z,18.42
2022-08-14T03:53:35.709Z,18.46
2022-08-14T03:54:34.705Z,18.50
2022-08-14T03:55:34.690Z,18.42
2022-08-14T03:56:34.682Z,18.47
2022-08-14T03:57:37.297Z,18.46
2022-08-14T03:58:35.303Z,18.42
2022-08-14T03:59:35.272Z,18.54
2022-08-14T04:00:43.618Z,18.52
2022-08-14T04:01:41.413Z,18.37
2022-08-14T04:02:37.457Z,18.43
2022-08-14T04:03:37.408Z,18.50
2022-08-14T04:04:34.602Z,18.43
2022-08-14T04:05:37.941Z,18.49
2022-08-14T04:06:35.576Z,18.54
2022-08-14T04:07:36.038Z,18.52
2022-08-14T04:08:34.557Z,18.50
2022-08-14T04:09:34.554Z,18.49
2022-08-14T04:10:34.535Z,18.40
2022-08-14T04:11:34.532Z,18.55
2022-08-14T04:12:34.538Z,18.49
2022-08-14T04:13:34.662Z,18.52
2022-08-14T04:14:37.244Z,18.42
2022-08-14T04:15:40.868Z,18.44
2022-08-14T04:16:35.479Z,18.49
2022-08-14T04:17:34.488Z,18.42
2022-08-14T04:18:34.467Z,18.50
2022-08-14T04:19:36.386Z,18.46
2022-08-14T04:20:34.447Z,18.47
2022-08-14T04:21:39.780Z,18.44
2022-08-14T04:22:35.504Z,18.46
2022-08-14T04:23:34.422Z,18.46
2022-08-14T04:24:37.992Z,18.44
2022-08-14T04:25:34.402Z,18.40
2022-08-14T04:26:43.110Z,18.37
2022-08-14T04:28:01.687Z,18.39
2022-08-14T04:29:07.605Z,18.36
2022-08-14T04:29:35.365Z,18.33
2022-08-14T04:30:34.344Z,18.29
2022-08-14T04:33:02.479Z,18.29
2022-08-14T04:33:02.972Z,18.21
2022-08-14T04:33:35.324Z,18.22
2022-08-14T04:34:34.319Z,18.10
2022-08-14T04:35:56.626Z,18.13
2022-08-14T04:36:36.275Z,18.09
2022-08-14T04:37:34.296Z,18.09
2022-08-14T04:38:36.773Z,18.03
2022-08-14T04:39:35.417Z,17.99
2022-08-14T04:40:35.431Z,17.94
2022-08-14T04:41:35.243Z,18.04
2022-08-14T04:42:34.236Z,18.02
2022-08-14T04:43:39.153Z,18.02
2022-08-14T04:44:36.862Z,17.97
2022-08-14T04:45:34.198Z,17.94
2022-08-14T04:46:55.656Z,17.97
2022-08-14T04:47:35.198Z,18.03
2022-08-14T04:48:43.288Z,17.91
2022-08-14T04:49:35.164Z,18.09
2022-08-14T04:50:43.504Z,18.06
2022-08-14T04:51:46.265Z,17.99
2022-08-14T04:52:35.224Z,17.92
2022-08-14T04:53:35.431Z,18.09
2022-08-14T04:54:34.109Z,17.97
2022-08-14T04:55:34.145Z,18.13
2022-08-14T04:56:34.847Z,18.03
2022-08-14T04:57:34.146Z,18.12
2022-08-14T04:58:34.186Z,18.13
2022-08-14T04:59:34.064Z,18.22
2022-08-14T05:00:34.050Z,18.09
2022-08-14T05:01:39.871Z,18.07
2022-08-14T05:02:34.629Z,18.03
2022-08-14T05:03:34.021Z,18.10
2022-08-14T05:04:34.013Z,18.02
2022-08-14T05:05:35.004Z,18.09
2022-08-14T05:06:34.990Z,18.04
2022-08-14T05:07:54.086Z,18.10
2022-08-14T05:08:59.782Z,18.17
2022-08-14T05:09:34.975Z,18.00
2022-08-14T05:10:33.951Z,18.18
2022-08-14T05:11:36.512Z,17.99
2022-08-14T05:13:21.256Z,17.85
2022-08-14T05:13:53.190Z,17.74
2022-08-14T05:14:46.468Z,17.82
2022-08-14T05:15:34.904Z,17.82
2022-08-14T05:16:33.888Z,17.92
2022-08-14T05:17:44.098Z,17.92
2022-08-14T05:19:17.192Z,18.00
2022-08-14T05:19:44.240Z,18.04
2022-08-14T05:21:54.740Z,18.12
2022-08-14T05:21:59.696Z,18.17
2022-08-14T05:22:34.848Z,18.07
2022-08-14T05:23:33.826Z,18.25
2022-08-14T05:24:33.851Z,18.27
2022-08-14T05:25:34.468Z,18.36
2022-08-14T05:26:33.794Z,18.34
2022-08-14T05:27:33.803Z,18.43
2022-08-14T05:28:33.782Z,18.49
2022-08-14T05:29:33.767Z,18.47
2022-08-14T05:30:33.761Z,18.43
2022-08-14T05:31:39.501Z,18.49
2022-08-14T05:32:35.756Z,18.49
2022-08-14T05:33:33.724Z,18.58
2022-08-14T05:34:33.704Z,18.58
2022-08-14T05:35:33.709Z,18.79
2022-08-14T05:36:33.696Z,18.80
2022-08-14T05:37:33.705Z,18.92
2022-08-14T05:38:35.294Z,18.94
2022-08-14T05:39:33.716Z,19.05
2022-08-14T05:40:33.658Z,19.21
2022-08-14T05:41:53.364Z,19.35
2022-08-14T05:42:34.662Z,19.29
2022-08-14T05:43:40.691Z,19.28
2022-08-14T05:44:34.615Z,19.35
2022-08-14T05:45:33.606Z,19.35
2022-08-14T05:46:33.595Z,19.38
2022-08-14T05:47:38.972Z,19.39
2022-08-14T05:48:43.132Z,19.46
2022-08-14T05:49:34.095Z,19.46
2022-08-14T05:50:33.560Z,19.53
2022-08-14T05:51:33.551Z,19.65
2022-08-14T05:52:38.792Z,19.63
2022-08-14T05:53:34.437Z,19.80
2022-08-14T05:54:35.566Z,19.88
2022-08-14T05:55:33.510Z,20.02
2022-08-14T05:56:33.502Z,19.95
2022-08-14T05:57:33.509Z,19.95
2022-08-14T05:58:33.905Z,20.02
2022-08-14T05:59:39.409Z,20.12
2022-08-14T06:00:37.094Z,20.15
2022-08-14T06:01:33.469Z,20.21
2022-08-14T06:02:33.478Z,20.23
2022-08-14T06:03:33.439Z,20.21
2022-08-14T06:04:33.419Z,20.33
2022-08-14T06:06:05.327Z,20.47
2022-08-14T06:06:38.051Z,20.64
2022-08-14T06:07:35.402Z,20.62
2022-08-14T06:08:41.006Z,20.76
2022-08-14T06:09:35.511Z,20.76
2022-08-14T06:10:34.375Z,20.71
2022-08-14T06:11:33.358Z,20.66
2022-08-14T06:12:55.858Z,20.71
2022-08-14T06:13:44.768Z,20.81
2022-08-14T06:14:34.334Z,20.89
2022-08-14T06:15:33.326Z,20.93
2022-08-14T06:16:33.316Z,21.04
2022-08-14T06:17:45.900Z,21.01
2022-08-14T06:18:34.293Z,21.04
2022-08-14T06:19:33.274Z,21.21
2022-08-14T06:20:34.359Z,21.30
2022-08-14T06:21:33.315Z,21.27
2022-08-14T06:22:33.274Z,21.38
2022-08-14T06:23:33.250Z,21.29
2022-08-14T06:24:34.707Z,21.29
2022-08-14T06:25:33.223Z,21.20
2022-08-14T06:26:33.218Z,21.17
2022-08-14T06:27:34.090Z,21.14
2022-08-14T06:28:33.191Z,21.21
2022-08-14T06:29:34.576Z,21.04
2022-08-14T06:30:45.882Z,21.02
2022-08-14T06:31:34.168Z,21.04
2022-08-14T06:32:36.547Z,21.11
2022-08-14T06:35:03.395Z,21.09
2022-08-14T06:35:11.123Z,21.13
2022-08-14T06:35:34.137Z,21.14
2022-08-14T06:36:33.117Z,21.30
2022-08-14T06:37:33.114Z,21.42
2022-08-14T06:38:33.099Z,21.50
2022-08-14T06:39:36.275Z,21.61
2022-08-14T06:40:34.221Z,21.79
2022-08-14T06:41:56.636Z,21.71
2022-08-14T06:42:34.072Z,21.79
2022-08-14T06:43:33.050Z,21.99
2022-08-14T06:44:33.341Z,22.06
2022-08-14T06:45:33.034Z,22.17
2022-08-14T06:46:36.886Z,22.25
2022-08-14T06:47:33.032Z,22.37
2022-08-14T06:48:32.995Z,22.39
2022-08-14T06:49:40.610Z,22.49
2022-08-14T06:50:33.978Z,22.54
2022-08-14T06:51:38.632Z,22.67
2022-08-14T06:52:33.972Z,22.60
2022-08-14T06:53:32.948Z,22.62
2022-08-14T06:54:32.946Z,22.72
2022-08-14T06:55:32.928Z,22.65
2022-08-14T06:56:32.922Z,22.71
2022-08-14T06:57:32.931Z,22.72
2022-08-14T06:58:32.905Z,22.77
2022-08-14T06:59:33.700Z,22.69
2022-08-14T07:00:32.914Z,22.72
2022-08-14T07:01:32.893Z,22.77
2022-08-14T07:02:32.883Z,22.69
2022-08-14T07:03:32.863Z,22.69
2022-08-14T07:04:32.855Z,22.75
2022-08-14T07:05:32.842Z,22.84
2022-08-14T07:06:46.795Z,22.87
2022-08-14T07:07:33.835Z,23.01
2022-08-14T07:08:32.824Z,23.17
2022-08-14T07:09:44.305Z,23.27
2022-08-14T07:10:33.793Z,23.26
2022-08-14T07:11:32.771Z,23.34
2022-08-14T07:12:52.021Z,23.40
2022-08-14T07:13:33.762Z,23.23
2022-08-14T07:14:32.755Z,22.89
2022-08-14T07:15:33.979Z,22.82
2022-08-14T07:16:32.742Z,22.87
2022-08-14T07:17:34.358Z,22.92
2022-08-14T07:18:32.725Z,22.97
2022-08-14T07:19:32.722Z,23.02
2022-08-14T07:20:32.771Z,23.09
2022-08-14T07:21:32.698Z,23.29
2022-08-14T07:22:49.829Z,23.34
2022-08-14T07:23:33.668Z,23.47
2022-08-14T07:24:33.667Z,23.60
2022-08-14T07:25:33.160Z,23.65
2022-08-14T07:26:32.632Z,23.57
2022-08-14T07:27:33.670Z,23.65
2022-08-14T07:28:32.626Z,23.68
2022-08-14T07:29:32.617Z,23.62
2022-08-14T07:30:33.715Z,23.58
2022-08-14T07:31:32.597Z,23.71
2022-08-14T07:32:33.974Z,23.75
2022-08-14T07:33:32.573Z,23.77
2022-08-14T07:34:40.997Z,23.95
2022-08-14T07:35:37.510Z,23.92
2022-08-14T07:36:32.554Z,24.12
2022-08-14T07:37:32.562Z,24.14
2022-08-14T07:38:37.985Z,24.27
2022-08-14T07:39:35.208Z,24.29
2022-08-14T07:40:32.512Z,24.53
2022-08-14T07:41:35.618Z,24.57
2022-08-14T07:42:32.504Z,24.68
2022-08-14T07:43:32.477Z,24.71
2022-08-14T07:44:45.952Z,24.87
2022-08-14T07:45:33.467Z,24.91
2022-08-14T07:46:32.460Z,25.19
2022-08-14T07:47:32.465Z,25.16
2022-08-14T07:48:32.425Z,25.22
2022-08-14T07:49:32.424Z,25.19
2022-08-14T07:50:34.619Z,25.13
2022-08-14T07:51:34.164Z,25.09
2022-08-14T07:52:32.406Z,25.19
2022-08-14T07:53:36.577Z,25.32
2022-08-14T07:54:33.372Z,25.37
2022-08-14T07:55:32.373Z,25.49
2022-08-14T07:56:47.401Z,25.54
2022-08-14T07:57:33.363Z,25.62
2022-08-14T07:58:34.519Z,25.62
2022-08-14T07:59:42.476Z,25.65
2022-08-14T08:00:33.552Z,25.64
2022-08-14T08:01:32.306Z,25.71
2022-08-14T08:02:32.605Z,25.87
2022-08-14T08:03:32.332Z,25.91
2022-08-14T08:04:34.147Z,26.09
2022-08-14T08:05:32.274Z,25.99
2022-08-14T08:06:32.265Z,26.04
2022-08-14T08:07:32.244Z,26.11
2022-08-14T08:08:32.253Z,26.21
2022-08-14T08:09:32.728Z,26.29
2022-08-14T08:11:02.312Z,26.31
2022-08-14T08:11:34.655Z,26.42
2022-08-14T08:12:32.764Z,26.49
2022-08-14T08:13:32.240Z,26.57
2022-08-14T08:14:33.183Z,26.52
2022-08-14T08:15:33.171Z,26.35
2022-08-14T08:16:32.161Z,26.11
2022-08-14T08:17:35.058Z,26.28
2022-08-14T08:18:33.168Z,26.39
2022-08-14T08:19:36.930Z,26.43
2022-08-14T08:20:32.130Z,26.49
2022-08-14T08:21:33.139Z,26.32
2022-08-14T08:22:32.423Z,26.24
2022-08-14T08:23:40.803Z,26.31
2022-08-14T08:24:33.092Z,26.47
2022-08-14T08:25:32.122Z,26.37
2022-08-14T08:26:32.070Z,26.54
2022-08-14T08:27:32.068Z,26.65
2022-08-14T08:28:32.066Z,26.69
2022-08-14T08:29:32.037Z,26.87
2022-08-14T08:30:32.034Z,26.89
2022-08-14T08:31:34.865Z,26.81
2022-08-14T08:32:32.007Z,26.69
2022-08-14T08:33:37.017Z,26.31
2022-08-14T08:34:32.994Z,26.21
2022-08-14T08:35:46.130Z,26.20
2022-08-14T08:36:32.976Z,26.18
2022-08-14T08:37:31.987Z,26.32
2022-08-14T08:39:17.568Z,26.29
2022-08-14T08:40:01.170Z,26.29
2022-08-14T08:40:32.996Z,26.36
2022-08-14T08:41:31.931Z,26.46
2022-08-14T08:42:44.657Z,26.72
2022-08-14T08:43:32.925Z,26.76
2022-08-14T08:44:34.393Z,26.89
2022-08-14T08:45:31.890Z,26.95
2022-08-14T08:46:31.881Z,26.99
2022-08-14T08:47:31.869Z,26.98
2022-08-14T08:48:36.499Z,26.86
2022-08-14T08:49:36.150Z,26.91
2022-08-14T08:51:17.079Z,26.79
2022-08-14T08:52:25.304Z,26.74
2022-08-14T08:53:18.079Z,26.74
2022-08-14T08:54:18.436Z,26.73
2022-08-14T08:55:17.059Z,26.46
2022-08-14T08:56:30.517Z,26.31
2022-08-14T08:57:21.338Z,26.31
2022-08-14T08:58:20.091Z,26.35
2022-08-14T08:59:18.152Z,26.44
2022-08-14T09:00:25.748Z,26.35
2022-08-14T09:01:19.164Z,26.36
2022-08-14T09:02:18.109Z,26.39
2022-08-14T09:03:18.090Z,26.40
2022-08-14T09:04:18.114Z,26.46
2022-08-14T09:05:18.090Z,26.61
2022-08-14T09:07:01.372Z,26.77
2022-08-14T09:07:19.059Z,26.73
2022-08-14T09:08:30.874Z,26.87
2022-08-14T09:09:19.058Z,26.80
2022-08-14T09:10:22.233Z,26.74
2022-08-14T09:11:19.035Z,26.89
2022-08-14T09:12:18.018Z,26.91
2022-08-14T09:13:18.005Z,26.99
2022-08-14T09:14:18.005Z,27.06
2022-08-14T09:15:17.977Z,27.20
2022-08-14T09:16:19.101Z,27.41
2022-08-14T09:17:17.971Z,27.50
2022-08-14T09:18:18.528Z,27.50
2022-08-14T09:19:17.960Z,27.54
2022-08-14T09:20:26.280Z,27.31
2022-08-14T09:21:18.936Z,27.35
2022-08-14T09:22:34.718Z,27.21
2022-08-14T09:23:18.910Z,27.31
2022-08-14T09:24:29.600Z,27.32
2022-08-14T09:25:19.844Z,27.50
2022-08-14T09:26:20.980Z,27.59
2022-08-14T09:27:22.747Z,27.62
2022-08-14T09:28:18.871Z,27.70
2022-08-14T09:29:17.876Z,27.76
2022-08-14T09:30:30.911Z,27.54
2022-08-14T09:31:18.839Z,27.41
2022-08-14T09:32:58.748Z,27.11
2022-08-14T09:33:22.958Z,26.87
2022-08-14T09:34:27.431Z,26.86
2022-08-14T09:35:18.803Z,27.06
2022-08-14T09:36:18.448Z,27.16
2022-08-14T09:37:17.787Z,27.33
2022-08-14T09:38:25.908Z,27.51
2022-08-14T09:39:22.782Z,27.58
2022-08-14T09:40:21.079Z,27.69
2022-08-14T09:41:17.746Z,27.89
2022-08-14T09:42:32.676Z,27.74
2022-08-14T09:43:22.434Z,27.74
2022-08-14T09:44:20.900Z,27.77
2022-08-14T09:45:17.709Z,27.89
2022-08-14T09:46:21.288Z,27.98
2022-08-14T09:47:17.686Z,28.07
2022-08-14T09:48:17.690Z,28.14
2022-08-14T09:49:17.686Z,28.19
2022-08-14T09:50:17.649Z,28.17
2022-08-14T09:51:17.649Z,28.03
2022-08-14T09:52:33.245Z,27.94
2022-08-14T09:53:18.754Z,27.89
2022-08-14T09:54:22.705Z,27.86
2022-08-14T09:55:18.620Z,27.89
2022-08-14T09:56:24.354Z,27.96
2022-08-14T09:57:18.587Z,27.80
2022-08-14T09:58:19.767Z,27.91
2022-08-14T09:59:17.583Z,27.92
2022-08-14T10:00:29.500Z,27.94
2022-08-14T10:01:18.559Z,27.92
2022-08-14T10:02:17.652Z,27.92
2022-08-14T10:03:17.567Z,27.94
2022-08-14T10:04:34.840Z,28.11
2022-08-14T10:05:18.526Z,28.25
2022-08-14T10:06:17.513Z,28.33
2022-08-14T10:07:17.500Z,28.46
2022-08-14T10:08:17.490Z,28.43
2022-08-14T10:09:18.492Z,28.59
2022-08-14T10:10:23.701Z,28.51
2022-08-14T10:11:18.463Z,28.33
2022-08-14T10:12:18.974Z,28.07
2022-08-14T10:13:18.456Z,28.09
2022-08-14T10:14:21.085Z,27.99
2022-08-14T10:15:19.426Z,28.10
2022-08-14T10:16:25.683Z,28.21
2022-08-14T10:17:18.407Z,28.50
2022-08-14T10:18:18.644Z,28.77
2022-08-14T10:19:17.406Z,28.88
2022-08-14T10:20:40.701Z,28.82
2022-08-14T10:21:18.367Z,28.68
2022-08-14T10:23:12.518Z,28.80
2022-08-14T10:23:18.355Z,28.73
2022-08-14T10:24:17.528Z,28.75
2022-08-14T10:25:17.341Z,28.82
2022-08-14T10:26:23.073Z,28.78
2022-08-14T10:27:18.384Z,28.90
2022-08-14T10:29:03.534Z,28.82
2022-08-14T10:29:23.501Z,28.87
2022-08-14T10:30:22.542Z,29.04
2022-08-14T10:31:17.284Z,29.16
2022-08-14T10:32:28.676Z,29.34
2022-08-14T10:33:18.269Z,29.38
2022-08-14T10:34:17.265Z,29.41
2022-08-14T10:35:17.248Z,29.44
2022-08-14T10:36:34.607Z,29.16
2022-08-14T10:37:18.397Z,29.19
2022-08-14T10:38:17.939Z,29.29
2022-08-14T10:39:17.238Z,29.22
2022-08-14T10:40:43.352Z,29.26
2022-08-14T10:41:18.240Z,29.44
2022-08-14T10:42:18.468Z,29.56
2022-08-14T10:43:17.164Z,29.65
2022-08-14T10:44:21.221Z,29.68
2022-08-14T10:45:17.141Z,29.87
2022-08-14T10:47:36.696Z,29.92
2022-08-14T10:47:39.555Z,29.96
2022-08-14T10:48:24.506Z,30.29
2022-08-14T10:49:18.119Z,30.56
2022-08-14T10:50:17.097Z,30.74
2022-08-14T10:51:17.103Z,30.75
2022-08-14T10:52:17.078Z,30.71
2022-08-14T10:53:17.065Z,30.84
2022-08-14T10:54:36.045Z,30.83
2022-08-14T10:55:18.043Z,30.83
2022-08-14T10:56:21.877Z,30.84
2022-08-14T10:57:18.026Z,30.76
2022-08-14T10:58:17.183Z,30.78
2022-08-14T10:59:17.026Z,30.72
2022-08-14T11:00:20.412Z,30.83
2022-08-14T11:01:17.015Z,30.90
2022-08-14T11:02:17.582Z,31.18
2022-08-14T11:03:26.835Z,31.31
2022-08-14T11:04:18.023Z,31.35
2022-08-14T11:05:16.977Z,31.45
2022-08-14T11:06:16.934Z,31.45
2022-08-14T11:07:21.263Z,31.27
2022-08-14T11:08:17.920Z,31.46
2022-08-14T11:09:17.270Z,31.58
2022-08-14T11:10:16.888Z,31.62
2022-08-14T11:11:16.893Z,31.84
2022-08-14T11:12:33.845Z,31.76
2022-08-14T11:13:17.881Z,31.64
2022-08-14T11:14:20.767Z,31.79
2022-08-14T11:15:17.869Z,31.99
2022-08-14T11:16:16.846Z,31.76
2022-08-14T11:17:21.819Z,31.61
2022-08-14T11:18:20.803Z,31.42
2022-08-14T11:19:17.829Z,31.35
2022-08-14T11:20:16.919Z,31.39
2022-08-14T11:21:16.789Z,31.28
2022-08-14T11:22:56.542Z,31.53
2022-08-14T11:23:17.776Z,31.50
2022-08-14T11:24:54.721Z,31.64
2022-08-14T11:25:17.773Z,31.75
2022-08-14T11:26:16.811Z,31.72
2022-08-14T11:27:16.738Z,31.58
2022-08-14T11:28:19.185Z,31.58
2022-08-14T11:29:16.737Z,31.50
2022-08-14T11:30:50.781Z,31.54
2022-08-14T11:31:17.719Z,31.64
2022-08-14T11:32:16.694Z,31.60
2022-08-14T11:33:16.680Z,31.72
2022-08-14T11:34:32.336Z,31.84
2022-08-14T11:35:17.678Z,31.92
2022-08-14T11:36:17.900Z,31.96
2022-08-14T11:37:22.893Z,31.87
2022-08-14T11:38:17.884Z,31.75
2022-08-14T11:39:16.633Z,31.50
2022-08-14T11:40:24.303Z,31.45
2022-08-14T11:41:17.721Z,31.60
2022-08-14T11:42:57.020Z,31.88
2022-08-14T11:43:17.602Z,31.93
2022-08-14T11:44:17.810Z,31.84
2022-08-14T11:45:18.937Z,31.87
2022-08-14T11:46:17.808Z,31.96
2022-08-14T11:47:17.568Z,32.11
2022-08-14T11:49:04.452Z,32.15
2022-08-14T11:49:18.948Z,32.48
2022-08-14T11:50:33.473Z,32.61
2022-08-14T11:51:17.527Z,32.67
2022-08-14T11:52:16.520Z,32.54
2022-08-14T11:53:16.502Z,32.54
2022-08-14T11:54:19.942Z,32.40
2022-08-14T11:55:16.505Z,32.33
2022-08-14T11:56:17.588Z,32.29
2022-08-14T11:57:16.476Z,32.35
2022-08-14T11:58:24.091Z,32.30
2022-08-14T11:59:17.456Z,32.39
2022-08-14T12:00:19.599Z,32.42
2022-08-14T12:01:16.423Z,32.44
2022-08-14T12:03:01.116Z,32.47
2022-08-14T12:03:22.755Z,32.61
2022-08-14T12:04:31.882Z,32.76
2022-08-14T12:05:18.437Z,32.85
2022-08-14T12:06:29.001Z,32.92
2022-08-14T12:07:18.385Z,32.92
2022-08-14T12:08:16.378Z,32.88
2022-08-14T12:09:16.353Z,32.89
2022-08-14T12:10:42.690Z,33.03
2022-08-14T12:11:16.356Z,33.11
2022-08-14T12:12:35.136Z,33.13
2022-08-14T12:13:17.785Z,33.37
2022-08-14T12:14:30.582Z,33.36
2022-08-14T12:15:17.324Z,33.37
2022-08-14T12:16:20.968Z,33.46
2022-08-14T12:17:16.289Z,33.49
2022-08-14T12:18:19.539Z,33.43
2022-08-14T12:19:16.277Z,33.29
2022-08-14T12:20:16.271Z,33.23
2022-08-14T12:21:19.457Z,32.85
2022-08-14T12:22:17.572Z,32.52
2022-08-14T12:23:17.264Z,32.33
2022-08-14T12:24:31.855Z,32.06
2022-08-14T12:25:17.234Z,31.79
2022-08-14T12:26:38.808Z,31.70
2022-08-14T12:27:18.419Z,31.92
2022-08-14T12:28:27.206Z,32.10
2022-08-14T12:29:17.175Z,32.32
2022-08-14T12:30:21.090Z,32.58
2022-08-14T12:31:17.164Z,32.77
2022-08-14T12:32:16.164Z,32.84
2022-08-14T12:33:16.189Z,32.92
2022-08-14T12:34:20.652Z,32.93
2022-08-14T12:35:17.144Z,32.91
2022-08-14T12:36:20.695Z,32.99
2022-08-14T12:37:16.104Z,32.91
2022-08-14T12:38:20.872Z,33.04
2022-08-14T12:39:17.094Z,33.23
2022-08-14T12:40:20.644Z,33.33
2022-08-14T12:41:20.803Z,33.34
2022-08-14T12:42:27.290Z,33.65
2022-08-14T12:43:17.062Z,33.95
2022-08-14T12:44:16.045Z,33.90
2022-08-14T12:45:17.377Z,33.89
2022-08-14T12:46:26.600Z,33.79
2022-08-14T12:47:17.037Z,33.61
2022-08-14T12:48:21.567Z,33.46
2022-08-14T12:49:17.011Z,33.34
2022-08-14T12:50:16.012Z,33.31
2022-08-14T12:51:15.990Z,33.27
2022-08-14T12:52:16.917Z,33.39
2022-08-14T12:53:17.581Z,33.39